Bovington Camp, United Kingdom
Current Conditions -  °F | °C
As of 3:20 AM on Friday 19 Dec 2014 (Local Time) from EGHH Reporting Station
Moderate Rain Moderate Rain  
Wind Chill: 12°   Ceiling: 900
Heat Index: 12°   Visibility: 6mi
Dew Point: 11°   Wind: 23mph
Humidity: 94%   Direction: 250°WSW
Pressure: 29.85"   Gusts: NA
Location:  50.7°N, 2.24°W
Report Text: EGHH 190320Z 25020KT 9999 RA BKN009 12/11 Q1011
Loading
Personal Weather Stations






























Interactive Weather Map New forecast layout! Learn more

10-Day Weather Forecast

Advertisements
Track Severe Weather on mobile